Moreland Hills, Ohio
Current Conditions -  °F | °C
As of 5:45 PM on Monday 22 Dec 2014 (Local Time) from KCGF Reporting Station
Broken Clouds Broken Clouds  
Wind Chill: 33°   Ceiling: 20000
Heat Index: 39°   Visibility: 7mi
Dew Point: 32°   Wind: 9mph
Humidity: 75%   Direction: 130°SE
Pressure: 29.96"   Gusts: NA
Location:  41.4475°N, 81.4018°W
Report Text: KCGF 222245Z 13008KT 7SM FEW120 BKN200 04/00 A2996
Loading
Personal Weather Stations






























Interactive Weather Map New forecast layout! Learn more

10-Day Weather Forecast

Advertisements
Track Severe Weather on mobile